createdAt,value
2018-01-19T00:00:16.136Z,98891.31
2018-01-19T00:02:43.618Z,98893.66
2018-01-19T00:05:11.148Z,98891.82
2018-01-19T00:07:38.692Z,98894.57
2018-01-19T00:10:06.227Z,98898.67
2018-01-19T00:12:33.664Z,98904.50
2018-01-19T00:15:01.168Z,98905.25
2018-01-19T00:17:28.676Z,98901.87
2018-01-19T00:19:56.238Z,98901.34
2018-01-19T00:22:23.737Z,98897.05
2018-01-19T00:24:51.206Z,98915.22
2018-01-19T00:27:18.686Z,98912.67
2018-01-19T00:29:47.058Z,98918.09
2018-01-19T00:32:14.577Z,98917.28
2018-01-19T00:34:42.037Z,98911.78
2018-01-19T00:37:09.953Z,98912.77
2018-01-19T00:39:37.506Z,98916.75
2018-01-19T00:42:04.958Z,98931.08
2018-01-19T00:44:32.429Z,98931.36
2018-01-19T00:46:59.925Z,98925.71
2018-01-19T00:49:27.441Z,98938.08
2018-01-19T00:51:54.893Z,98932.58
2018-01-19T00:54:22.413Z,98932.81
2018-01-19T00:56:49.958Z,98939.75
2018-01-19T00:59:22.364Z,98930.34
2018-01-19T01:01:49.880Z,98949.66
2018-01-19T01:04:17.341Z,98948.08
2018-01-19T01:06:44.796Z,98939.41
2018-01-19T01:09:12.328Z,98943.85
2018-01-19T01:11:39.770Z,98946.91
2018-01-19T01:14:07.269Z,98950.31
2018-01-19T01:16:34.722Z,98947.02
2018-01-19T01:19:02.245Z,98939.72
2018-01-19T01:21:29.716Z,98944.64
2018-01-19T01:23:57.189Z,98944.33
2018-01-19T01:26:24.712Z,98947.25
2018-01-19T01:28:52.194Z,98944.06
2018-01-19T01:31:19.675Z,98942.86
2018-01-19T01:33:47.104Z,98953.24
2018-01-19T01:36:14.633Z,98950.59
2018-01-19T01:38:42.126Z,98949.16
2018-01-19T01:41:09.631Z,98948.09
2018-01-19T01:43:37.093Z,98947.59
2018-01-19T01:46:04.569Z,98949.93
2018-01-19T01:48:32.044Z,98951.77
2018-01-19T01:50:59.501Z,98955.48
2018-01-19T01:53:27.036Z,98962.89
2018-01-19T01:55:54.496Z,98960.41
2018-01-19T01:58:21.969Z,98961.58
2018-01-19T02:00:50.300Z,98961.05
2018-01-19T02:03:18.047Z,98962.34
2018-01-19T02:05:45.518Z,98955.64
2018-01-19T02:08:13.537Z,98952.62
2018-01-19T02:10:41.040Z,98950.38
2018-01-19T02:13:08.492Z,98955.93
2018-01-19T02:15:35.993Z,98955.16
2018-01-19T02:18:03.501Z,98951.86
2018-01-19T02:20:31.577Z,98954.24
2018-01-19T02:22:59.045Z,98956.87
2018-01-19T02:25:26.593Z,98959.92
2018-01-19T02:27:54.054Z,98958.34
2018-01-19T02:30:21.604Z,98956.89
2018-01-19T02:32:49.104Z,98961.77
2018-01-19T02:35:16.605Z,98967.41
2018-01-19T02:37:44.076Z,98969.39
2018-01-19T02:40:11.571Z,98972.30
2018-01-19T02:42:39.059Z,98971.63
2018-01-19T02:45:06.588Z,98974.79
2018-01-19T02:47:34.127Z,98983.98
2018-01-19T02:50:01.702Z,98978.19
2018-01-19T02:52:29.196Z,98980.27
2018-01-19T02:54:57.479Z,98981.70
2018-01-19T02:57:24.973Z,98982.11
2018-01-19T02:59:52.701Z,98984.59
2018-01-19T03:02:20.147Z,98981.95
2018-01-19T03:04:47.578Z,98990.00
2018-01-19T03:07:15.070Z,98992.22
2018-01-19T03:09:42.537Z,98990.27
2018-01-19T03:12:10.064Z,98989.88
2018-01-19T03:14:37.545Z,98993.20
2018-01-19T03:17:05.064Z,98991.06
2018-01-19T03:19:32.512Z,98990.27
2018-01-19T03:22:00.331Z,98995.83
2018-01-19T03:24:27.794Z,98987.95
2018-01-19T03:26:56.118Z,99002.13
2018-01-19T03:29:23.578Z,98998.83
2018-01-19T03:31:51.086Z,99001.59
2018-01-19T03:34:18.550Z,99011.74
2018-01-19T03:36:46.004Z,99010.78
2018-01-19T03:39:13.482Z,99013.95
2018-01-19T03:41:40.982Z,99008.83
2018-01-19T03:44:08.477Z,99015.11
2018-01-19T03:46:35.954Z,99018.91
2018-01-19T03:49:08.410Z,99032.59
2018-01-19T03:51:35.880Z,99027.20
2018-01-19T03:54:03.357Z,99025.35
2018-01-19T03:56:30.872Z,99027.49
2018-01-19T03:58:58.346Z,99030.63
2018-01-19T04:01:25.872Z,99028.16
2018-01-19T04:03:53.322Z,99027.10
2018-01-19T04:06:20.832Z,99033.39
2018-01-19T04:08:49.144Z,99034.06
2018-01-19T04:11:16.601Z,99035.20
2018-01-19T04:13:44.122Z,99038.34
2018-01-19T04:16:11.572Z,99041.64
2018-01-19T04:18:39.019Z,99030.44
2018-01-19T04:21:06.564Z,99037.39
2018-01-19T04:23:33.995Z,99041.06
2018-01-19T04:26:01.477Z,99041.06
2018-01-19T04:28:28.960Z,99044.77
2018-01-19T04:30:56.414Z,99053.58
2018-01-19T04:33:23.861Z,99055.26
2018-01-19T04:35:51.446Z,99051.16
2018-01-19T04:38:18.930Z,99052.12
2018-01-19T04:40:46.453Z,99057.91
2018-01-19T04:43:13.911Z,99061.63
2018-01-19T04:45:41.398Z,99059.49
2018-01-19T04:48:13.853Z,99056.45
2018-01-19T04:50:41.362Z,99070.03
2018-01-19T04:53:08.847Z,99074.13
2018-01-19T04:55:36.292Z,99074.92
2018-01-19T04:58:03.803Z,99073.98
2018-01-19T05:00:31.287Z,99065.67
2018-01-19T05:02:58.733Z,99073.19
2018-01-19T05:05:26.266Z,99075.55
2018-01-19T05:07:53.707Z,99068.98
2018-01-19T05:10:21.264Z,99070.55
2018-01-19T05:12:48.700Z,99083.58
2018-01-19T05:15:16.244Z,99086.85
2018-01-19T05:17:43.708Z,99085.92
2018-01-19T05:20:11.192Z,99091.33
2018-01-19T05:22:39.891Z,99097.91
2018-01-19T05:25:07.355Z,99094.75
2018-01-19T05:27:34.902Z,99101.09
2018-01-19T05:30:02.418Z,99099.36
2018-01-19T05:32:29.920Z,99102.13
2018-01-19T05:34:57.357Z,99101.33
2018-01-19T05:37:24.866Z,99102.55
2018-01-19T05:39:52.340Z,99105.95
2018-01-19T05:42:19.809Z,99111.22
2018-01-19T05:44:47.295Z,99112.66
2018-01-19T05:47:14.780Z,99116.07
2018-01-19T05:49:42.296Z,99110.81
2018-01-19T05:52:09.774Z,99119.73
2018-01-19T05:54:37.287Z,99118.56
2018-01-19T05:57:04.788Z,99119.24
2018-01-19T05:59:32.257Z,99124.50
2018-01-19T06:01:59.758Z,99131.58
2018-01-19T06:04:27.248Z,99131.08
2018-01-19T06:06:54.801Z,99144.09
2018-01-19T06:09:22.241Z,99139.61
2018-01-19T06:11:49.714Z,99135.30
2018-01-19T06:14:17.191Z,99140.28
2018-01-19T06:16:44.729Z,99144.23
2018-01-19T06:19:17.223Z,99152.89
2018-01-19T06:21:44.714Z,99153.56
2018-01-19T06:24:12.172Z,99152.67
2018-01-19T06:26:39.644Z,99151.86
2018-01-19T06:29:07.187Z,99157.66
2018-01-19T06:31:34.735Z,99156.62
2018-01-19T06:34:02.233Z,99162.10
2018-01-19T06:36:29.791Z,99160.66
2018-01-19T06:38:57.265Z,99168.30
2018-01-19T06:41:24.766Z,99172.89
2018-01-19T06:43:52.281Z,99168.81
2018-01-19T06:46:19.781Z,99173.66
2018-01-19T06:48:47.223Z,99178.81
2018-01-19T06:51:14.788Z,99182.75
2018-01-19T06:53:42.234Z,99185.48
2018-01-19T06:56:09.750Z,99183.41
2018-01-19T06:58:37.233Z,99196.05
2018-01-19T07:01:04.758Z,99196.81
2018-01-19T07:03:32.207Z,99201.17
2018-01-19T07:05:59.707Z,99201.81
2018-01-19T07:08:27.217Z,99209.83
2018-01-19T07:10:54.759Z,99201.03
2018-01-19T07:13:22.233Z,99209.42
2018-01-19T07:15:49.735Z,99209.42
2018-01-19T07:18:17.611Z,99215.98
2018-01-19T07:20:45.142Z,99217.03
2018-01-19T07:23:12.684Z,99222.06
2018-01-19T07:25:40.289Z,99224.82
2018-01-19T07:28:07.811Z,99232.70
2018-01-19T07:30:35.400Z,99232.30
2018-01-19T07:33:02.907Z,99234.16
2018-01-19T07:35:30.488Z,99239.14
2018-01-19T07:37:58.012Z,99243.22
2018-01-19T07:40:25.620Z,99248.34
2018-01-19T07:42:53.221Z,99246.63
2018-01-19T07:45:20.712Z,99250.97
2018-01-19T07:47:48.343Z,99254.64
2018-01-19T07:50:15.887Z,99257.67
2018-01-19T07:52:43.473Z,99265.02
2018-01-19T07:55:11.013Z,99264.11
2018-01-19T07:57:38.567Z,99267.66
2018-01-19T08:00:06.262Z,99267.78
2018-01-19T08:02:33.780Z,99262.53
2018-01-19T08:05:01.427Z,99270.02
2018-01-19T08:07:29.759Z,99278.17
2018-01-19T08:09:57.344Z,99282.88
2018-01-19T08:12:25.035Z,99289.08
2018-01-19T08:14:52.654Z,99290.91
2018-01-19T08:17:20.156Z,99299.47
2018-01-19T08:19:47.616Z,99304.59
2018-01-19T08:22:15.095Z,99310.36
2018-01-19T08:24:42.556Z,99311.94
2018-01-19T08:27:10.054Z,99315.62
2018-01-19T08:29:51.875Z,99314.70
2018-01-19T08:32:19.419Z,99316.55
2018-01-19T08:34:46.893Z,99321.67
2018-01-19T08:37:14.370Z,99326.93
2018-01-19T08:39:41.892Z,99324.54
2018-01-19T08:42:09.489Z,99322.84
2018-01-19T08:44:36.935Z,99326.93
2018-01-19T08:47:04.439Z,99329.02
2018-01-19T08:49:31.902Z,99332.27
2018-01-19T08:51:59.420Z,99333.73
2018-01-19T08:54:26.861Z,99341.27
2018-01-19T08:56:54.339Z,99348.22
2018-01-19T08:59:21.816Z,99345.85
2018-01-19T09:01:49.335Z,99351.92
2018-01-19T09:04:16.815Z,99358.37
2018-01-19T09:06:44.338Z,99362.45
2018-01-19T09:09:11.826Z,99362.82
2018-01-19T09:11:39.334Z,99362.18
2018-01-19T09:14:06.792Z,99366.90
2018-01-19T09:16:34.289Z,99367.04
2018-01-19T09:19:01.751Z,99366.90
2018-01-19T09:21:29.300Z,99366.26
2018-01-19T09:23:56.794Z,99377.83
2018-01-19T09:26:24.310Z,99376.11
2018-01-19T09:28:51.841Z,99384.81
2018-01-19T09:31:19.292Z,99390.58
2018-01-19T09:33:46.795Z,99391.52
2018-01-19T09:36:14.434Z,99394.66
2018-01-19T09:38:41.996Z,99398.20
2018-01-19T09:41:09.529Z,99397.69
2018-01-19T09:43:37.384Z,99399.78
2018-01-19T09:46:05.761Z,99406.36
2018-01-19T09:48:33.257Z,99403.08
2018-01-19T09:51:00.789Z,99404.64
2018-01-19T09:53:28.279Z,99407.66
2018-01-19T09:55:55.788Z,99407.92
2018-01-19T09:58:23.524Z,99414.89
2018-01-19T10:00:50.988Z,99409.74
2018-01-19T10:03:18.427Z,99411.84
2018-01-19T10:05:45.882Z,99420.41
2018-01-19T10:08:13.382Z,99411.04
2018-01-19T10:10:40.887Z,99422.11
2018-01-19T10:13:08.399Z,99423.14
2018-01-19T10:15:35.872Z,99421.69
2018-01-19T10:18:03.427Z,99430.14
2018-01-19T10:20:30.918Z,99433.53
2018-01-19T10:22:58.399Z,99433.96
2018-01-19T10:25:25.889Z,99437.00
2018-01-19T10:27:53.356Z,99431.33
2018-01-19T10:30:20.891Z,99433.41
2018-01-19T10:32:48.384Z,99425.52
2018-01-19T10:35:15.855Z,99418.29
2018-01-19T10:37:43.318Z,99421.84
2018-01-19T10:40:10.832Z,99429.22
2018-01-19T10:42:38.340Z,99425.31
2018-01-19T10:45:05.780Z,99427.67
2018-01-19T10:47:33.287Z,99434.12
2018-01-19T10:50:00.793Z,99428.70
2018-01-19T10:52:28.315Z,99431.06
2018-01-19T10:54:55.780Z,99431.89
2018-01-19T10:57:23.289Z,99434.73
2018-01-19T10:59:50.728Z,99438.66
2018-01-19T11:02:18.245Z,99440.23
2018-01-19T11:04:45.861Z,99440.21
2018-01-19T11:07:13.357Z,99445.34
2018-01-19T11:09:40.888Z,99443.50
2018-01-19T11:12:08.414Z,99442.60
2018-01-19T11:14:35.899Z,99452.64
2018-01-19T11:17:03.360Z,99448.12
2018-01-19T11:19:30.852Z,99452.22
2018-01-19T11:21:58.362Z,99459.22
2018-01-19T11:24:25.826Z,99464.92
2018-01-19T11:26:53.319Z,99462.77
2018-01-19T11:29:25.849Z,99460.53
2018-01-19T11:31:53.358Z,99459.31
2018-01-19T11:34:20.815Z,99444.42
2018-01-19T11:36:48.293Z,99455.55
2018-01-19T11:39:20.860Z,99461.41
2018-01-19T11:41:48.351Z,99464.84
2018-01-19T11:44:15.856Z,99466.45
2018-01-19T11:46:43.408Z,99471.19
2018-01-19T11:49:10.952Z,99470.97
2018-01-19T11:51:38.642Z,99472.56
2018-01-19T11:54:06.250Z,99476.25
2018-01-19T11:56:33.814Z,99479.66
2018-01-19T11:59:01.460Z,99478.22
2018-01-19T12:01:29.142Z,99475.72
2018-01-19T12:03:56.606Z,99479.52
2018-01-19T12:06:24.259Z,99475.56
2018-01-19T12:08:51.809Z,99480.05
2018-01-19T12:11:19.273Z,99485.08
2018-01-19T12:13:46.792Z,99479.16
2018-01-19T12:16:14.313Z,99481.79
2018-01-19T12:18:41.794Z,99484.16
2018-01-19T12:21:09.276Z,99483.48
2018-01-19T12:23:36.751Z,99484.00
2018-01-19T12:26:04.225Z,99475.77
2018-01-19T12:28:31.707Z,99494.57
2018-01-19T12:30:59.258Z,99490.48
2018-01-19T12:33:26.815Z,99488.64
2018-01-19T12:35:54.360Z,99485.27
2018-01-19T12:38:22.358Z,99494.38
2018-01-19T12:40:50.352Z,99492.01
2018-01-19T12:43:17.850Z,99497.01
2018-01-19T12:45:45.437Z,99496.34
2018-01-19T12:48:12.917Z,99497.94
2018-01-19T12:50:40.546Z,99503.64
2018-01-19T12:53:08.505Z,99507.45
2018-01-19T12:55:36.144Z,99506.41
2018-01-19T12:58:04.569Z,99511.79
2018-01-19T13:00:32.256Z,99512.84
2018-01-19T13:02:59.769Z,99512.56
2018-01-19T13:05:27.507Z,99518.91
2018-01-19T13:07:55.073Z,99519.68
2018-01-19T13:10:22.532Z,99512.33
2018-01-19T13:12:50.096Z,99517.05
2018-01-19T13:15:17.657Z,99520.72
2018-01-19T13:17:45.178Z,99514.53
2018-01-19T13:20:12.740Z,99514.53
2018-01-19T13:22:40.235Z,99523.76
2018-01-19T13:25:07.824Z,99527.16
2018-01-19T13:27:35.345Z,99536.11
2018-01-19T13:30:02.947Z,99541.13
2018-01-19T13:32:30.466Z,99537.55
2018-01-19T13:34:57.928Z,99539.00
2018-01-19T13:37:25.538Z,99536.51
2018-01-19T13:39:53.099Z,99549.41
2018-01-19T13:42:20.585Z,99556.80
2018-01-19T13:44:48.126Z,99559.30
2018-01-19T13:47:15.838Z,99573.36
2018-01-19T13:49:48.400Z,99567.58
2018-01-19T13:52:15.920Z,99572.83
2018-01-19T13:54:43.452Z,99571.38
2018-01-19T13:57:10.919Z,99573.19
2018-01-19T13:59:43.503Z,99569.39
2018-01-19T14:02:11.142Z,99572.55
2018-01-19T14:04:38.655Z,99571.84
2018-01-19T14:07:06.352Z,99569.34
2018-01-19T14:09:34.029Z,99578.16
2018-01-19T14:12:01.581Z,99584.06
2018-01-19T14:14:29.081Z,99582.22
2018-01-19T14:16:56.557Z,99579.17
2018-01-19T14:19:24.095Z,99581.25
2018-01-19T14:21:51.620Z,99578.50
2018-01-19T14:24:19.078Z,99579.03
2018-01-19T14:26:46.651Z,99586.00
2018-01-19T14:29:14.139Z,99588.77
2018-01-19T14:31:41.619Z,99595.58
2018-01-19T14:34:09.388Z,99599.52
2018-01-19T14:36:36.909Z,99592.92
2018-01-19T14:39:04.482Z,99597.68
2018-01-19T14:41:31.976Z,99595.33
2018-01-19T14:43:59.494Z,99597.43
2018-01-19T14:46:27.059Z,99604.43
2018-01-19T14:48:54.535Z,99599.05
2018-01-19T14:51:22.814Z,99599.03
2018-01-19T14:53:50.348Z,99605.20
2018-01-19T14:56:17.839Z,99603.09
2018-01-19T14:58:45.475Z,99607.06
2018-01-19T15:01:12.919Z,99605.52
2018-01-19T15:03:40.466Z,99603.91
2018-01-19T15:06:08.001Z,99595.59
2018-01-19T15:08:35.520Z,99598.91
2018-01-19T15:11:03.106Z,99603.34
2018-01-19T15:13:30.567Z,99598.09
2018-01-19T15:15:58.082Z,99606.61
2018-01-19T15:18:25.594Z,99604.77
2018-01-19T15:20:53.113Z,99606.06
2018-01-19T15:23:20.591Z,99611.98
2018-01-19T15:25:48.157Z,99609.07
2018-01-19T15:28:15.982Z,99608.03
2018-01-19T15:30:43.575Z,99609.36
2018-01-19T15:33:11.064Z,99615.80
2018-01-19T15:35:38.689Z,99613.02
2018-01-19T15:38:06.277Z,99612.08
2018-01-19T15:40:33.799Z,99618.37
2018-01-19T15:43:01.457Z,99623.77
2018-01-19T15:45:29.063Z,99625.98
2018-01-19T15:47:56.645Z,99619.55
2018-01-19T15:50:24.383Z,99629.29
2018-01-19T15:52:51.932Z,99623.11
2018-01-19T15:55:19.469Z,99624.44
2018-01-19T15:57:46.948Z,99619.58
2018-01-19T16:00:14.828Z,99620.98
2018-01-19T16:02:42.318Z,99620.17
2018-01-19T16:05:09.874Z,99628.67
2018-01-19T16:07:37.455Z,99634.72
2018-01-19T16:10:04.990Z,99631.41
2018-01-19T16:12:32.516Z,99637.47
2018-01-19T16:15:00.133Z,99642.31
2018-01-19T16:17:27.738Z,99638.89
2018-01-19T16:19:55.303Z,99645.06
2018-01-19T16:22:22.842Z,99643.22
2018-01-19T16:24:50.874Z,99647.83
2018-01-19T16:27:18.534Z,99655.31
2018-01-19T16:29:46.141Z,99650.16
2018-01-19T16:32:13.660Z,99659.63
2018-01-19T16:34:41.280Z,99670.50
2018-01-19T16:37:08.858Z,99676.66
2018-01-19T16:39:36.387Z,99676.70
2018-01-19T16:42:04.006Z,99672.91
2018-01-19T16:44:32.758Z,99684.16
2018-01-19T16:47:00.400Z,99687.29
2018-01-19T16:49:27.927Z,99688.67
2018-01-19T16:51:55.517Z,99685.97
2018-01-19T16:54:23.079Z,99687.81
2018-01-19T16:56:50.658Z,99677.31
2018-01-19T16:59:18.126Z,99678.48
2018-01-19T17:01:45.727Z,99684.41
2018-01-19T17:04:13.272Z,99686.20
2018-01-19T17:06:40.854Z,99681.70
2018-01-19T17:09:08.474Z,99688.45
2018-01-19T17:11:36.099Z,99690.67
2018-01-19T17:14:03.630Z,99691.58
2018-01-19T17:16:31.206Z,99691.20
2018-01-19T17:18:58.722Z,99690.40
2018-01-19T17:21:26.290Z,99691.86
2018-01-19T17:23:53.853Z,99690.56
2018-01-19T17:26:21.474Z,99688.97
2018-01-19T17:28:49.059Z,99694.50
2018-01-19T17:31:16.614Z,99701.63
2018-01-19T17:33:44.166Z,99696.80
2018-01-19T17:36:11.660Z,99692.05
2018-01-19T17:38:39.286Z,99691.77
2018-01-19T17:41:06.783Z,99692.86
2018-01-19T17:43:34.418Z,99700.06
2018-01-19T17:46:02.137Z,99697.55
2018-01-19T17:48:29.752Z,99704.11
2018-01-19T17:50:57.226Z,99705.02
2018-01-19T17:53:24.777Z,99702.13
2018-01-19T17:55:52.359Z,99696.78
2018-01-19T17:58:19.897Z,99695.32
2018-01-19T18:00:47.596Z,99692.71
2018-01-19T18:03:17.488Z,99693.23
2018-01-19T18:05:45.176Z,99692.33
2018-01-19T18:08:12.752Z,99693.34
2018-01-19T18:10:40.351Z,99691.86
2018-01-19T18:13:07.904Z,99695.30
2018-01-19T18:15:35.483Z,99693.30
2018-01-19T18:18:03.005Z,99700.52
2018-01-19T18:20:30.606Z,99700.76
2018-01-19T18:22:58.192Z,99699.85
2018-01-19T18:25:25.931Z,99700.23
2018-01-19T18:27:53.473Z,99703.27
2018-01-19T18:30:21.020Z,99695.61
2018-01-19T18:32:48.550Z,99694.55
2018-01-19T18:35:16.175Z,99696.53
2018-01-19T18:37:43.802Z,99691.13
2018-01-19T18:40:11.336Z,99692.42
2018-01-19T18:42:38.832Z,99700.02
2018-01-19T18:45:06.584Z,99694.75
2018-01-19T18:47:34.393Z,99697.24
2018-01-19T18:50:02.221Z,99692.78
2018-01-19T18:52:29.809Z,99688.01
2018-01-19T18:54:57.400Z,99694.17
2018-01-19T18:57:24.965Z,99690.38
2018-01-19T18:59:52.557Z,99695.73
2018-01-19T19:02:20.105Z,99693.39
2018-01-19T19:04:47.645Z,99699.40
2018-01-19T19:07:15.216Z,99694.70
2018-01-19T19:09:42.709Z,99690.63
2018-01-19T19:12:10.215Z,99698.79
2018-01-19T19:14:38.990Z,99688.94
2018-01-19T19:17:06.556Z,99691.56
2018-01-19T19:19:34.131Z,99690.53
2018-01-19T19:22:01.657Z,99686.69
2018-01-19T19:24:29.164Z,99700.36
2018-01-19T19:26:56.740Z,99693.52
2018-01-19T19:29:24.303Z,99705.56
2018-01-19T19:31:51.860Z,99695.42
2018-01-19T19:34:19.446Z,99699.97
2018-01-19T19:36:47.033Z,99700.07
2018-01-19T19:39:14.512Z,99705.95
2018-01-19T19:41:42.065Z,99702.27
2018-01-19T19:44:09.622Z,99708.16
2018-01-19T19:46:37.161Z,99709.29
2018-01-19T19:49:04.662Z,99710.87
2018-01-19T19:51:32.395Z,99706.13
2018-01-19T19:53:59.923Z,99704.81
2018-01-19T19:56:27.496Z,99714.77
2018-01-19T19:58:54.968Z,99709.49
2018-01-19T20:01:22.637Z,99712.09
2018-01-19T20:03:50.120Z,99705.84
2018-01-19T20:06:17.833Z,99711.73
2018-01-19T20:08:45.443Z,99710.02
2018-01-19T20:11:12.995Z,99714.17
2018-01-19T20:13:40.613Z,99714.17
2018-01-19T20:16:08.161Z,99712.02
2018-01-19T20:18:35.708Z,99715.68
2018-01-19T20:21:03.230Z,99715.93
2018-01-19T20:23:30.746Z,99708.84
2018-01-19T20:25:58.275Z,99713.83
2018-01-19T20:28:26.079Z,99716.45
2018-01-19T20:30:53.774Z,99710.15
2018-01-19T20:33:21.375Z,99713.45
2018-01-19T20:35:48.932Z,99714.11
2018-01-19T20:38:16.563Z,99717.02
2018-01-19T20:40:44.223Z,99716.80
2018-01-19T20:43:11.766Z,99721.92
2018-01-19T20:45:39.333Z,99726.92
2018-01-19T20:48:07.043Z,99717.73
2018-01-19T20:50:34.621Z,99721.02
2018-01-19T20:53:02.201Z,99715.08
2018-01-19T20:55:29.736Z,99722.70
2018-01-19T20:57:57.251Z,99719.27
2018-01-19T21:00:24.809Z,99725.30
2018-01-19T21:02:52.373Z,99718.05
2018-01-19T21:05:19.914Z,99713.83
2018-01-19T21:07:47.582Z,99719.77
2018-01-19T21:10:15.140Z,99717.39
2018-01-19T21:12:42.728Z,99720.92
2018-01-19T21:15:10.305Z,99727.23
2018-01-19T21:17:37.947Z,99723.73
2018-01-19T21:20:05.447Z,99725.45
2018-01-19T21:22:33.082Z,99725.76
2018-01-19T21:25:00.684Z,99724.60
2018-01-19T21:27:28.303Z,99725.53
2018-01-19T21:30:05.506Z,99725.19
2018-01-19T21:32:33.074Z,99724.66
2018-01-19T21:35:00.583Z,99724.28
2018-01-19T21:37:28.271Z,99723.27
2018-01-19T21:39:55.882Z,99725.45
2018-01-19T21:42:23.535Z,99724.26
2018-01-19T21:44:51.283Z,99730.09
2018-01-19T21:47:18.865Z,99727.21
2018-01-19T21:49:46.429Z,99726.58
2018-01-19T21:52:13.980Z,99723.17
2018-01-19T21:54:41.499Z,99725.30
2018-01-19T21:57:08.995Z,99725.77
2018-01-19T21:59:36.590Z,99732.59
2018-01-19T22:02:04.169Z,99727.84
2018-01-19T22:04:31.696Z,99728.47
2018-01-19T22:06:59.276Z,99727.47
2018-01-19T22:09:26.990Z,99725.75
2018-01-19T22:11:54.524Z,99727.69
2018-01-19T22:14:22.096Z,99724.13
2018-01-19T22:16:49.666Z,99733.55
2018-01-19T22:19:17.161Z,99730.64
2018-01-19T22:21:44.785Z,99726.55
2018-01-19T22:24:12.365Z,99721.05
2018-01-19T22:26:39.930Z,99715.65
2018-01-19T22:29:07.468Z,99715.02
2018-01-19T22:31:34.974Z,99714.48
2018-01-19T22:34:02.575Z,99712.61
2018-01-19T22:36:30.072Z,99714.73
2018-01-19T22:38:57.596Z,99710.12
2018-01-19T22:41:25.101Z,99713.53
2018-01-19T22:43:52.713Z,99722.69
2018-01-19T22:46:20.220Z,99718.59
2018-01-19T22:48:47.720Z,99714.44
2018-01-19T22:51:15.217Z,99729.00
2018-01-19T22:53:42.830Z,99720.81
2018-01-19T22:56:10.350Z,99717.10
2018-01-19T22:58:37.875Z,99728.81
2018-01-19T23:01:05.355Z,99724.22
2018-01-19T23:03:32.842Z,99725.28
2018-01-19T23:06:00.330Z,99720.53
2018-01-19T23:08:27.870Z,99725.94
2018-01-19T23:10:55.389Z,99728.13
2018-01-19T23:13:23.018Z,99727.48
2018-01-19T23:15:50.538Z,99723.44
2018-01-19T23:18:18.025Z,99727.13
2018-01-19T23:20:45.536Z,99726.50
2018-01-19T23:23:13.014Z,99722.00
2018-01-19T23:25:40.608Z,99727.78
2018-01-19T23:28:08.171Z,99721.38
2018-01-19T23:30:35.718Z,99723.75
2018-01-19T23:33:03.246Z,99721.63
2018-01-19T23:35:30.740Z,99717.62
2018-01-19T23:37:58.252Z,99719.02
2018-01-19T23:40:25.778Z,99719.97
2018-01-19T23:42:53.279Z,99714.44
2018-01-19T23:45:20.786Z,99710.63
2018-01-19T23:47:48.305Z,99715.06
2018-01-19T23:50:15.817Z,99706.53
2018-01-19T23:52:43.335Z,99705.97
2018-01-19T23:55:10.844Z,99704.51
2018-01-19T23:57:38.375Z,99698.63
